createdAt,value
2018-12-04T00:01:13.267Z,97146.47
2018-12-04T00:03:47.071Z,97145.32
2018-12-04T00:06:20.881Z,97145.79
2018-12-04T00:08:54.887Z,97147.95
2018-12-04T00:14:25.725Z,97144.55
2018-12-04T00:16:59.644Z,97147.11
2018-12-04T00:19:33.510Z,97145.52
2018-12-04T00:22:07.316Z,97154.70
2018-12-04T00:24:41.475Z,97156.89
2018-12-04T00:27:15.380Z,97149.34
2018-12-04T00:29:49.084Z,97162.98
2018-12-04T00:32:22.804Z,97162.21
2018-12-04T00:34:56.898Z,97160.16
2018-12-04T00:37:30.759Z,97163.97
2018-12-04T00:40:06.561Z,97164.67
2018-12-04T00:42:40.245Z,97175.19
2018-12-04T00:45:14.371Z,97170.44
2018-12-04T00:47:48.205Z,97182.88
2018-12-04T00:50:22.097Z,97189.95
2018-12-04T00:52:55.987Z,97189.75
2018-12-04T00:55:33.892Z,97190.67
2018-12-04T00:58:07.798Z,97201.91
2018-12-04T01:00:41.807Z,97198.75
2018-12-04T01:03:15.516Z,97207.31
2018-12-04T01:05:49.726Z,97202.72
2018-12-04T01:08:23.499Z,97209.30
2018-12-04T01:10:57.642Z,97205.94
2018-12-04T01:13:31.550Z,97213.05
2018-12-04T01:16:05.361Z,97217.36
2018-12-04T01:18:39.467Z,97222.91
2018-12-04T01:21:13.272Z,97221.83
2018-12-04T01:23:47.141Z,97231.67
2018-12-04T01:26:21.155Z,97235.29
2018-12-04T01:28:55.199Z,97232.45
2018-12-04T01:31:29.109Z,97238.36
2018-12-04T01:34:03.116Z,97245.19
2018-12-04T01:36:36.921Z,97253.12
2018-12-04T01:39:10.829Z,97257.82
2018-12-04T01:41:44.798Z,97262.08
2018-12-04T01:44:18.848Z,97270.63
2018-12-04T01:46:52.964Z,97282.54
2018-12-04T01:49:26.852Z,97279.33
2018-12-04T01:52:00.879Z,97098.14
2018-12-04T01:54:34.887Z,97266.56
2018-12-04T01:57:08.787Z,97275.53
2018-12-04T01:59:42.804Z,97277.83
2018-12-04T02:02:16.814Z,97277.78
2018-12-04T02:04:50.824Z,97281.09
2018-12-04T02:07:24.679Z,97277.05
2018-12-04T02:09:58.843Z,97278.67
2018-12-04T02:12:32.982Z,97286.28
2018-12-04T02:15:07.068Z,97287.17
2018-12-04T02:17:40.976Z,97285.92
2018-12-04T02:20:14.882Z,97286.31
2018-12-04T02:22:48.648Z,97298.25
2018-12-04T02:25:22.807Z,97293.30
2018-12-04T02:27:56.655Z,97303.88
2018-12-04T02:30:30.719Z,97304.80
2018-12-04T02:33:04.938Z,97308.45
2018-12-04T02:35:38.741Z,97317.90
2018-12-04T02:38:12.747Z,97327.36
2018-12-04T02:40:46.831Z,97347.50
2018-12-04T02:43:20.972Z,97347.19
2018-12-04T02:45:54.877Z,97353.98
2018-12-04T02:48:28.888Z,97372.64
2018-12-04T02:51:02.645Z,97374.59
2018-12-04T02:53:36.705Z,97380.72
2018-12-04T02:56:10.507Z,97380.72
2018-12-04T02:58:44.416Z,97391.09
2018-12-04T03:01:18.323Z,97390.67
2018-12-04T03:03:53.971Z,97403.43
2018-12-04T03:06:27.837Z,97413.30
2018-12-04T03:09:02.003Z,97417.48
2018-12-04T03:11:36.001Z,97423.72
2018-12-04T03:14:11.754Z,97430.24
2018-12-04T03:16:45.499Z,97435.95
2018-12-04T03:19:19.569Z,97449.38
2018-12-04T03:21:53.473Z,97451.35
2018-12-04T03:24:27.380Z,97463.92
2018-12-04T03:27:01.288Z,97468.68
2018-12-04T03:29:35.209Z,97474.32
2018-12-04T03:32:09.309Z,97482.73
2018-12-04T03:34:43.216Z,97492.56
2018-12-04T03:37:17.128Z,97499.85
2018-12-04T03:39:51.246Z,97514.30
2018-12-04T03:42:25.247Z,97527.36
2018-12-04T03:44:59.256Z,97542.06
2018-12-04T03:47:33.063Z,97547.42
2018-12-04T03:50:07.171Z,97556.63
2018-12-04T03:52:41.185Z,97569.50
2018-12-04T03:55:15.191Z,97579.40
2018-12-04T03:57:49.407Z,97586.86
2018-12-04T04:00:23.313Z,97592.61
2018-12-04T04:02:57.425Z,97603.46
2018-12-04T04:05:31.230Z,97620.43
2018-12-04T04:08:05.139Z,97627.72
2018-12-04T04:10:39.252Z,97633.82
2018-12-04T04:13:13.055Z,97638.25
2018-12-04T04:15:46.860Z,97653.65
2018-12-04T04:18:20.736Z,97659.31
2018-12-04T04:20:54.778Z,97664.84
2018-12-04T04:23:28.689Z,97668.37
2018-12-04T04:26:02.594Z,97676.36
2018-12-04T04:28:36.602Z,97684.84
2018-12-04T04:31:10.407Z,97696.51
2018-12-04T04:33:44.453Z,97705.38
2018-12-04T04:36:18.372Z,97705.27
2018-12-04T04:38:52.335Z,97714.90
2018-12-04T04:41:26.786Z,97715.73
2018-12-04T04:44:00.867Z,97720.49
2018-12-04T04:46:34.879Z,97741.66
2018-12-04T04:49:08.885Z,97737.32
2018-12-04T04:51:42.897Z,97752.75
2018-12-04T04:54:16.865Z,97753.71
2018-12-04T04:56:51.027Z,97755.16
2018-12-04T04:59:24.823Z,97755.70
2018-12-04T05:01:58.731Z,97759.86
2018-12-04T05:04:32.843Z,97765.08
2018-12-04T05:07:06.594Z,97779.59
2018-12-04T05:09:40.764Z,97788.11
2018-12-04T05:12:14.771Z,97781.95
2018-12-04T05:14:48.781Z,97791.88
2018-12-04T05:17:22.688Z,97797.92
2018-12-04T05:19:56.499Z,97809.16
2018-12-04T05:22:30.503Z,97812.64
2018-12-04T05:25:05.023Z,97810.09
2018-12-04T05:27:38.830Z,97818.88
2018-12-04T05:30:12.837Z,97831.27
2018-12-04T05:32:47.052Z,97841.93
2018-12-04T05:35:20.812Z,97844.23
2018-12-04T05:37:55.073Z,97844.24
2018-12-04T05:40:29.044Z,97849.94
2018-12-04T05:43:03.096Z,97856.88
2018-12-04T05:45:37.102Z,97862.06
2018-12-04T05:48:11.009Z,97860.83
2018-12-04T05:50:44.880Z,97868.58
2018-12-04T05:53:37.153Z,97877.34
2018-12-04T05:56:11.064Z,97891.47
2018-12-04T05:58:45.025Z,97905.48
2018-12-04T06:01:19.040Z,97914.59
2018-12-04T06:03:53.191Z,97916.96
2018-12-04T06:06:26.946Z,97916.33
2018-12-04T06:09:01.006Z,97924.69
2018-12-04T06:11:35.016Z,97929.58
2018-12-04T06:14:09.028Z,97933.33
2018-12-04T06:16:42.831Z,97948.09
2018-12-04T06:19:16.738Z,97951.97
2018-12-04T06:21:50.486Z,97964.47
2018-12-04T06:24:24.655Z,97968.99
2018-12-04T06:26:58.517Z,97971.34
2018-12-04T06:29:32.675Z,97973.31
2018-12-04T06:32:06.550Z,97980.14
2018-12-04T06:34:41.088Z,97988.42
2018-12-04T06:37:14.957Z,97991.80
2018-12-04T06:39:48.895Z,98001.41
2018-12-04T06:42:23.132Z,98013.77
2018-12-04T06:44:57.226Z,98017.39
2018-12-04T06:47:31.217Z,98019.50
2018-12-04T06:50:08.441Z,98037.95
2018-12-04T06:55:21.681Z,98039.77
2018-12-04T06:57:57.125Z,98044.52
2018-12-04T07:00:31.033Z,98051.88
2018-12-04T07:03:05.144Z,98055.98
2018-12-04T07:05:39.052Z,98071.76
2018-12-04T07:08:12.754Z,98079.51
2018-12-04T07:10:46.866Z,98086.27
2018-12-04T07:13:21.081Z,98091.70
2018-12-04T07:15:54.989Z,98097.94
2018-12-04T07:18:28.853Z,98110.78
2018-12-04T07:21:02.869Z,98125.92
2018-12-04T07:23:36.918Z,98130.19
2018-12-04T07:26:10.926Z,98138.40
2018-12-04T07:28:44.834Z,98151.67
2018-12-04T07:31:18.810Z,98153.42
2018-12-04T07:33:52.796Z,98165.66
2018-12-04T07:36:26.862Z,98177.43
2018-12-04T07:39:00.826Z,97535.93
2018-12-04T07:41:34.783Z,98195.37
2018-12-04T07:44:08.788Z,98208.24
2018-12-04T07:46:42.696Z,98222.41
2018-12-04T07:49:16.588Z,98216.01
2018-12-04T07:51:50.614Z,98223.27
2018-12-04T07:54:24.726Z,98216.45
2018-12-04T07:56:58.892Z,98220.59
2018-12-04T07:59:32.848Z,98221.05
2018-12-04T08:02:06.754Z,98237.09
2018-12-04T08:04:40.664Z,98228.07
2018-12-04T08:07:14.776Z,98235.27
2018-12-04T08:09:48.784Z,98243.77
2018-12-04T08:12:23.551Z,98253.92
2018-12-04T08:14:57.625Z,98263.28
2018-12-04T08:17:31.529Z,98269.13
2018-12-04T08:20:06.845Z,98275.00
2018-12-04T08:22:40.636Z,98279.06
2018-12-04T08:25:14.685Z,98279.05
2018-12-04T08:27:48.593Z,98293.66
2018-12-04T08:30:22.705Z,98296.92
2018-12-04T08:32:56.817Z,98300.84
2018-12-04T08:35:30.929Z,98306.07
2018-12-04T08:38:05.044Z,98307.88
2018-12-04T08:40:39.871Z,98312.30
2018-12-04T08:43:14.084Z,98318.53
2018-12-04T08:45:48.094Z,98319.98
2018-12-04T08:48:21.906Z,98330.14
2018-12-04T08:50:55.807Z,98339.46
2018-12-04T08:53:29.771Z,98350.30
2018-12-04T08:56:04.549Z,98352.60
2018-12-04T08:58:38.450Z,98354.87
2018-12-04T09:01:12.415Z,98359.83
2018-12-04T09:03:46.470Z,98368.00
2018-12-04T09:06:20.378Z,98365.64
2018-12-04T09:08:54.146Z,98369.05
2018-12-04T09:11:28.077Z,98377.05
2018-12-04T09:14:02.714Z,98385.05
2018-12-04T09:16:36.621Z,98394.67
2018-12-04T09:19:10.374Z,98400.28
2018-12-04T09:21:44.358Z,98404.68
2018-12-04T09:24:18.369Z,98407.39
2018-12-04T09:26:52.678Z,98414.42
2018-12-04T09:29:26.635Z,98420.41
2018-12-04T09:32:00.786Z,98429.07
2018-12-04T09:34:34.588Z,98434.97
2018-12-04T09:37:08.494Z,98437.75
2018-12-04T09:39:42.402Z,98432.64
2018-12-04T09:42:16.314Z,98439.23
2018-12-04T09:44:50.216Z,98437.80
2018-12-04T09:47:23.973Z,98440.63
2018-12-04T09:49:57.928Z,98449.20
2018-12-04T09:52:31.698Z,98450.61
2018-12-04T09:55:06.239Z,98450.78
2018-12-04T09:57:40.163Z,98459.77
2018-12-04T10:00:14.174Z,98452.41
2018-12-04T10:02:48.080Z,98451.33
2018-12-04T10:05:21.988Z,98459.65
2018-12-04T10:07:55.896Z,98469.37
2018-12-04T10:10:29.803Z,98459.90
2018-12-04T10:13:03.710Z,98476.01
2018-12-04T10:15:37.434Z,98472.81
2018-12-04T10:18:11.558Z,98479.89
2018-12-04T10:20:45.739Z,98483.87
2018-12-04T10:23:19.710Z,98483.47
2018-12-04T10:25:53.861Z,98485.36
2018-12-04T10:28:27.769Z,98491.43
2018-12-04T10:31:07.215Z,98503.59
2018-12-04T10:33:41.013Z,98513.46
2018-12-04T10:36:14.826Z,98512.81
2018-12-04T10:38:48.576Z,98512.66
2018-12-04T10:41:22.424Z,98515.96
2018-12-04T10:43:56.382Z,98523.02
2018-12-04T10:46:30.342Z,98526.00
2018-12-04T10:49:04.213Z,98526.03
2018-12-04T10:51:38.259Z,98537.44
2018-12-04T10:54:12.069Z,98535.13
2018-12-04T10:56:46.234Z,98541.95
2018-12-04T10:59:20.390Z,98545.03
2018-12-04T11:01:59.937Z,98545.33
2018-12-04T11:04:33.780Z,98564.74
2018-12-04T11:07:07.971Z,98560.49
2018-12-04T11:09:42.163Z,98555.86
2018-12-04T11:12:16.072Z,98553.08
2018-12-04T11:14:49.878Z,98561.76
2018-12-04T11:17:23.886Z,98559.70
2018-12-04T11:19:57.648Z,98565.78
2018-12-04T11:22:31.700Z,98578.92
2018-12-04T11:25:07.162Z,98582.05
2018-12-04T11:27:40.993Z,98584.96
2018-12-04T11:30:14.959Z,98588.97
2018-12-04T11:32:48.765Z,98588.27
2018-12-04T11:35:22.470Z,98592.55
2018-12-04T11:37:56.579Z,98595.70
2018-12-04T11:40:30.486Z,98594.71
2018-12-04T11:43:04.396Z,98595.19
2018-12-04T11:45:39.224Z,98597.70
2018-12-04T11:48:13.129Z,98603.94
2018-12-04T11:50:47.139Z,98606.86
2018-12-04T11:53:21.004Z,98609.35
2018-12-04T11:55:55.018Z,98615.91
2018-12-04T11:58:29.028Z,98617.73
2018-12-04T12:01:03.329Z,98621.80
2018-12-04T12:03:37.291Z,98624.44
2018-12-04T12:06:11.378Z,98631.11
2018-12-04T12:08:45.515Z,98637.41
2018-12-04T12:11:19.527Z,98639.75
2018-12-04T12:13:53.534Z,98641.89
2018-12-04T12:16:27.442Z,98640.58
2018-12-04T12:19:01.452Z,98638.23
2018-12-04T12:21:35.368Z,98637.37
2018-12-04T12:24:09.166Z,98653.13
2018-12-04T12:26:43.184Z,98657.89
2018-12-04T12:29:17.042Z,98659.22
2018-12-04T12:31:51.057Z,98661.16
2018-12-04T12:34:25.102Z,98661.45
2018-12-04T12:36:58.908Z,98657.84
2018-12-04T12:39:33.480Z,98668.07
2018-12-04T12:42:07.645Z,98674.00
2018-12-04T12:44:41.652Z,98668.70
2018-12-04T12:47:15.560Z,98673.27
2018-12-04T12:49:49.342Z,98676.86
2018-12-04T12:52:23.476Z,98682.70
2018-12-04T12:54:57.383Z,98683.15
2018-12-04T12:57:31.190Z,98692.52
2018-12-04T13:00:06.433Z,98697.25
2018-12-04T13:02:40.956Z,98695.59
2018-12-04T13:05:14.965Z,98696.60
2018-12-04T13:07:48.857Z,98698.41
2018-12-04T13:10:22.869Z,98706.49
2018-12-04T13:12:56.988Z,98706.25
2018-12-04T13:15:30.999Z,98705.47
2018-12-04T13:18:04.905Z,98707.52
2018-12-04T13:20:38.607Z,98713.28
2018-12-04T13:23:12.791Z,98717.91
2018-12-04T13:25:46.807Z,98717.80
2018-12-04T13:28:20.956Z,98729.30
2018-12-04T13:30:54.763Z,98729.31
2018-12-04T13:33:28.907Z,98731.30
2018-12-04T13:36:02.932Z,98731.97
2018-12-04T13:38:37.010Z,98733.94
2018-12-04T13:41:11.141Z,98739.53
2018-12-04T13:43:45.153Z,98741.48
2018-12-04T13:46:18.939Z,98744.45
2018-12-04T13:48:53.069Z,98747.42
2018-12-04T13:51:26.844Z,98744.45
2018-12-04T13:54:01.017Z,98743.33
2018-12-04T13:56:34.997Z,98747.58
2018-12-04T13:59:09.023Z,98753.17
2018-12-04T14:01:42.973Z,98757.28
2018-12-04T14:04:17.377Z,98769.80
2018-12-04T14:06:51.405Z,98773.40
2018-12-04T14:09:26.235Z,98783.92
2018-12-04T14:12:00.385Z,98787.23
2018-12-04T14:14:34.251Z,98799.06
2018-12-04T14:17:08.433Z,98801.20
2018-12-04T14:19:42.385Z,98798.91
2018-12-04T14:22:16.440Z,98799.89
2018-12-04T14:24:51.193Z,98809.25
2018-12-04T14:27:25.280Z,98813.05
2018-12-04T14:29:59.477Z,98816.02
2018-12-04T14:32:33.590Z,98820.77
2018-12-04T14:35:07.805Z,98826.04
2018-12-04T14:37:41.922Z,98823.56
2018-12-04T14:40:15.935Z,98827.36
2018-12-04T14:42:52.147Z,98836.23
2018-12-04T14:45:26.303Z,98833.27
2018-12-04T14:48:00.221Z,98842.46
2018-12-04T14:50:35.245Z,98852.01
2018-12-04T14:53:09.134Z,98803.32
2018-12-04T14:55:43.028Z,98862.52
2018-12-04T14:58:17.073Z,98867.13
2018-12-04T15:00:50.931Z,98880.11
2018-12-04T15:03:24.969Z,98891.94
2018-12-04T15:05:59.008Z,98905.90
2018-12-04T15:08:32.773Z,98906.56
2018-12-04T15:11:06.929Z,98912.31
2018-12-04T15:13:40.803Z,98917.25
2018-12-04T15:16:14.773Z,98921.52
2018-12-04T15:18:48.847Z,98921.64
2018-12-04T15:21:22.876Z,98924.29
2018-12-04T15:23:56.859Z,98931.47
2018-12-04T15:26:30.764Z,98931.97
2018-12-04T15:29:05.008Z,98940.78
2018-12-04T15:31:39.121Z,98947.34
2018-12-04T15:34:12.897Z,98952.20
2018-12-04T15:36:46.853Z,98950.20
2018-12-04T15:39:20.916Z,98950.66
2018-12-04T15:41:55.047Z,98964.39
2018-12-04T15:44:29.169Z,98962.39
2018-12-04T15:47:03.204Z,98964.81
2018-12-04T15:49:37.390Z,98973.14
2018-12-04T15:52:11.461Z,98978.63
2018-12-04T15:54:45.450Z,98986.13
2018-12-04T15:57:19.394Z,98981.94
2018-12-04T15:59:53.482Z,98987.94
2018-12-04T16:02:27.514Z,98994.76
2018-12-04T16:05:01.320Z,98995.37
2018-12-04T16:07:35.125Z,99000.88
2018-12-04T16:10:09.953Z,99007.60
2018-12-04T16:12:43.759Z,99011.92
2018-12-04T16:15:18.694Z,99012.00
2018-12-04T16:17:52.563Z,99021.91
2018-12-04T16:20:26.611Z,99020.36
2018-12-04T16:23:00.628Z,99026.31
2018-12-04T16:25:34.730Z,99033.42
2018-12-04T16:28:08.739Z,99038.23
2018-12-04T16:30:42.954Z,99040.66
2018-12-04T16:33:17.183Z,99048.66
2018-12-04T16:35:52.203Z,99053.36
2018-12-04T16:38:26.386Z,99042.98
2018-12-04T16:41:00.528Z,99051.27
2018-12-04T16:43:34.416Z,99049.45
2018-12-04T16:46:08.548Z,99046.86
2018-12-04T16:48:42.660Z,99041.84
2018-12-04T16:51:16.465Z,99044.62
2018-12-04T16:53:50.427Z,99051.66
2018-12-04T16:56:24.587Z,99056.07
2018-12-04T16:58:58.598Z,99062.27
2018-12-04T17:01:33.733Z,99069.25
2018-12-04T17:04:07.742Z,99072.05
2018-12-04T17:06:41.704Z,99080.68
2018-12-04T17:09:15.666Z,99084.25
2018-12-04T17:11:49.365Z,99089.70
2018-12-04T17:14:23.301Z,99095.42
2018-12-04T17:16:57.566Z,99098.45
2018-12-04T17:19:31.599Z,99102.58
2018-12-04T17:22:05.503Z,99105.73
2018-12-04T17:24:39.947Z,99105.33
2018-12-04T17:27:13.941Z,99103.52
2018-12-04T17:29:48.048Z,99109.94
2018-12-04T17:32:22.204Z,99119.28
2018-12-04T17:34:56.271Z,99124.63
2018-12-04T17:37:30.181Z,99138.58
2018-12-04T17:40:05.212Z,99137.22
2018-12-04T17:42:39.118Z,99142.70
2018-12-04T17:45:13.232Z,99137.52
2018-12-04T17:47:47.305Z,99137.68
2018-12-04T17:50:21.536Z,99139.58
2018-12-04T17:52:55.574Z,99135.30
2018-12-04T17:55:29.474Z,99136.61
2018-12-04T17:58:03.318Z,99138.81
2018-12-04T18:00:38.316Z,99140.48
2018-12-04T18:03:12.121Z,99135.28
2018-12-04T18:05:46.025Z,99138.31
2018-12-04T18:08:20.035Z,99139.26
2018-12-04T18:10:53.840Z,99141.31
2018-12-04T18:13:27.747Z,99144.40
2018-12-04T18:16:01.559Z,99149.06
2018-12-04T18:18:35.459Z,99151.20
2018-12-04T18:21:09.366Z,99153.94
2018-12-04T18:23:43.582Z,99155.03
2018-12-04T18:26:18.511Z,99162.31
2018-12-04T18:28:52.521Z,99163.20
2018-12-04T18:31:26.703Z,99158.91
2018-12-04T18:34:00.747Z,99160.60
2018-12-04T18:36:34.961Z,99167.40
2018-12-04T18:39:08.971Z,99159.88
2018-12-04T18:41:43.083Z,99166.26
2018-12-04T18:44:17.094Z,99174.52
2018-12-04T18:46:51.104Z,99178.01
2018-12-04T18:49:24.908Z,99189.41
2018-12-04T18:51:59.002Z,99195.24
2018-12-04T18:54:33.041Z,99199.39
2018-12-04T18:57:07.171Z,99202.11
2018-12-04T18:59:41.270Z,99205.55
2018-12-04T19:02:15.174Z,99197.48
2018-12-04T19:04:49.281Z,99193.70
2018-12-04T19:07:23.367Z,99201.88
2018-12-04T19:09:57.394Z,99196.78
2018-12-04T19:12:31.303Z,99199.59
2018-12-04T19:15:05.886Z,99198.29
2018-12-04T19:17:39.938Z,99201.88
2018-12-04T19:20:15.140Z,99205.42
2018-12-04T19:22:49.233Z,99207.42
2018-12-04T19:25:23.093Z,99208.87
2018-12-04T19:27:56.896Z,99215.73
2018-12-04T19:30:30.803Z,99220.14
2018-12-04T19:33:04.710Z,99219.55
2018-12-04T19:35:38.632Z,99225.02
2018-12-04T19:38:12.500Z,99227.85
2018-12-04T19:40:46.744Z,99225.48
2018-12-04T19:43:20.649Z,99230.55
2018-12-04T19:45:54.516Z,99233.03
2018-12-04T19:48:28.668Z,99240.16
2018-12-04T19:51:02.476Z,99242.38
2018-12-04T19:53:37.020Z,99245.43
2018-12-04T19:56:11.018Z,99257.09
2018-12-04T19:58:44.914Z,99262.91
2018-12-04T20:01:18.829Z,99270.81
2018-12-04T20:03:52.845Z,99268.59
2018-12-04T20:06:26.840Z,99269.80
2018-12-04T20:09:00.860Z,99274.31
2018-12-04T20:11:34.676Z,99281.20
2018-12-04T20:14:08.869Z,99291.84
2018-12-04T20:16:42.888Z,99289.48
2018-12-04T20:19:16.864Z,99293.99
2018-12-04T20:21:50.853Z,99300.60
2018-12-04T20:24:24.994Z,99300.47
2018-12-04T20:26:59.123Z,99303.89
2018-12-04T20:29:33.141Z,99316.94
2018-12-04T20:32:07.213Z,99317.33
2018-12-04T20:34:41.253Z,99320.67
2018-12-04T20:37:15.571Z,99328.47
2018-12-04T20:39:49.335Z,98982.77
2018-12-04T20:42:23.637Z,99327.22
2018-12-04T20:44:57.704Z,99337.48
2018-12-04T20:47:31.979Z,99334.09
2018-12-04T20:50:06.439Z,99329.45
2018-12-04T20:52:40.245Z,99334.43
2018-12-04T20:55:14.163Z,99334.80
2018-12-04T20:57:48.348Z,99334.64
2018-12-04T21:00:22.374Z,99329.66
2018-12-04T21:02:59.773Z,99337.78
2018-12-04T21:05:33.617Z,99342.38
2018-12-04T21:08:07.580Z,99346.88
2018-12-04T21:10:41.587Z,99350.63
2018-12-04T21:13:15.599Z,99355.59
2018-12-04T21:15:49.619Z,99356.77
2018-12-04T21:18:23.933Z,99354.20
2018-12-04T21:20:57.848Z,99352.53
2018-12-04T21:23:31.960Z,99356.13
2018-12-04T21:26:05.862Z,99362.50
2018-12-04T21:28:41.913Z,99366.53
2018-12-04T21:31:21.450Z,99366.69
2018-12-04T21:34:00.987Z,99372.45
2018-12-04T21:36:40.441Z,99369.37
2018-12-04T21:39:19.349Z,99377.25
2018-12-04T21:41:58.022Z,99372.48
2018-12-04T21:44:37.869Z,99374.63
2018-12-04T21:47:17.425Z,99377.91
2018-12-04T21:49:51.390Z,99377.28
2018-12-04T21:52:25.528Z,99376.45
2018-12-04T21:54:59.422Z,99379.05
2018-12-04T21:57:33.557Z,99381.28
2018-12-04T22:00:07.828Z,99384.06
2018-12-04T22:02:41.980Z,99393.47
2018-12-04T22:05:15.987Z,99390.71
2018-12-04T22:07:49.998Z,99392.08
2018-12-04T22:10:23.904Z,99393.26
2018-12-04T22:12:57.813Z,99393.16
2018-12-04T22:15:31.674Z,99394.55
2018-12-04T22:18:05.728Z,99395.98
2018-12-04T22:20:39.533Z,99403.25
2018-12-04T22:23:13.497Z,99403.57
2018-12-04T22:25:47.553Z,99399.88
2018-12-04T22:28:21.357Z,99404.66
2018-12-04T22:30:55.372Z,99401.06
2018-12-04T22:33:29.376Z,99407.28
2018-12-04T22:36:04.412Z,99414.49
2018-12-04T22:38:38.318Z,99420.41
2018-12-04T22:41:12.386Z,99420.06
2018-12-04T22:43:46.438Z,99417.47
2018-12-04T22:46:20.246Z,99412.05
2018-12-04T22:48:54.356Z,99415.83
2018-12-04T22:51:28.365Z,99415.58
2018-12-04T22:54:02.340Z,99412.05
2018-12-04T22:56:36.756Z,99404.00
2018-12-04T22:59:10.805Z,99407.16
2018-12-04T23:01:44.712Z,99413.19
2018-12-04T23:04:18.925Z,99407.31
2018-12-04T23:06:53.043Z,99410.75
2018-12-04T23:09:27.012Z,99413.35
2018-12-04T23:12:01.226Z,99423.76
2018-12-04T23:14:35.272Z,99426.36
2018-12-04T23:17:09.234Z,99430.26
2018-12-04T23:19:43.395Z,99431.56
2018-12-04T23:22:17.505Z,99426.36
2018-12-04T23:24:51.708Z,99434.72
2018-12-04T23:27:25.832Z,99430.00
2018-12-04T23:29:59.841Z,99425.57
2018-12-04T23:32:33.748Z,99430.61
2018-12-04T23:35:07.963Z,99440.67
2018-12-04T23:37:41.836Z,99431.86
2018-12-04T23:40:15.883Z,99424.98
2018-12-04T23:42:49.787Z,99163.45
2018-12-04T23:45:23.503Z,99420.00
2018-12-04T23:47:57.499Z,99421.52
2018-12-04T23:50:31.305Z,99419.75
2018-12-04T23:53:05.315Z,99420.05
2018-12-04T23:55:39.325Z,99418.95
2018-12-04T23:58:13.438Z,99416.77
